sensor_id;sensor_type;location;lat;lon;timestamp;P1;durP1;ratioP1;P2;durP2;ratioP2
2858;SDS011;1437;53.250;10.406;2022-12-07T00:01:31;14.27;;;7.00;;
2858;SDS011;1437;53.250;10.406;2022-12-07T00:04:04;11.40;;;6.57;;
2858;SDS011;1437;53.250;10.406;2022-12-07T00:06:32;12.67;;;7.50;;
2858;SDS011;1437;53.250;10.406;2022-12-07T00:09:00;9.80;;;5.03;;
2858;SDS011;1437;53.250;10.406;2022-12-07T00:11:28;12.40;;;7.07;;
2858;SDS011;1437;53.250;10.406;2022-12-07T00:13:57;12.17;;;7.33;;
2858;SDS011;1437;53.250;10.406;2022-12-07T00:16:25;15.13;;;8.37;;
2858;SDS011;1437;53.250;10.406;2022-12-07T00:18:54;9.50;;;6.30;;
2858;SDS011;1437;53.250;10.406;2022-12-07T00:21:24;9.00;;;5.93;;
2858;SDS011;1437;53.250;10.406;2022-12-07T00:23:55;13.80;;;8.10;;
2858;SDS011;1437;53.250;10.406;2022-12-07T00:26:23;11.93;;;7.90;;
2858;SDS011;1437;53.250;10.406;2022-12-07T00:28:54;12.37;;;8.10;;
2858;SDS011;1437;53.250;10.406;2022-12-07T00:31:24;14.43;;;7.90;;
2858;SDS011;1437;53.250;10.406;2022-12-07T00:33:52;11.33;;;8.73;;
2858;SDS011;1437;53.250;10.406;2022-12-07T00:36:20;14.00;;;8.10;;
2858;SDS011;1437;53.250;10.406;2022-12-07T00:38:49;11.17;;;6.80;;
2858;SDS011;1437;53.250;10.406;2022-12-07T00:41:17;11.70;;;7.37;;
2858;SDS011;1437;53.250;10.406;2022-12-07T00:43:46;12.37;;;7.20;;
2858;SDS011;1437;53.250;10.406;2022-12-07T00:46:14;9.97;;;6.97;;
2858;SDS011;1437;53.250;10.406;2022-12-07T00:48:42;13.17;;;7.03;;
2858;SDS011;1437;53.250;10.406;2022-12-07T00:51:10;10.37;;;6.20;;
2858;SDS011;1437;53.250;10.406;2022-12-07T00:53:44;7.80;;;5.20;;
2858;SDS011;1437;53.250;10.406;2022-12-07T00:56:13;14.23;;;7.47;;
2858;SDS011;1437;53.250;10.406;2022-12-07T00:58:50;10.70;;;6.10;;
2858;SDS011;1437;53.250;10.406;2022-12-07T01:01:18;10.20;;;5.90;;
2858;SDS011;1437;53.250;10.406;2022-12-07T01:03:46;15.07;;;6.97;;
2858;SDS011;1437;53.250;10.406;2022-12-07T01:06:14;13.67;;;8.40;;
2858;SDS011;1437;53.250;10.406;2022-12-07T01:08:45;14.63;;;8.17;;
2858;SDS011;1437;53.250;10.406;2022-12-07T01:11:15;11.30;;;5.27;;
2858;SDS011;1437;53.250;10.406;2022-12-07T01:13:46;9.73;;;6.70;;
2858;SDS011;1437;53.250;10.406;2022-12-07T01:16:15;12.67;;;7.60;;
2858;SDS011;1437;53.250;10.406;2022-12-07T01:18:46;8.07;;;5.47;;
2858;SDS011;1437;53.250;10.406;2022-12-07T01:21:15;8.83;;;5.47;;
2858;SDS011;1437;53.250;10.406;2022-12-07T01:23:43;13.00;;;6.90;;
2858;SDS011;1437;53.250;10.406;2022-12-07T01:26:11;12.57;;;7.47;;
2858;SDS011;1437;53.250;10.406;2022-12-07T01:28:40;10.80;;;6.97;;
2858;SDS011;1437;53.250;10.406;2022-12-07T01:31:09;16.17;;;7.03;;
2858;SDS011;1437;53.250;10.406;2022-12-07T01:33:41;7.13;;;4.77;;
2858;SDS011;1437;53.250;10.406;2022-12-07T01:36:12;12.17;;;4.43;;
2858;SDS011;1437;53.250;10.406;2022-12-07T01:38:40;5.70;;;3.83;;
2858;SDS011;1437;53.250;10.406;2022-12-07T01:41:08;11.93;;;6.97;;
2858;SDS011;1437;53.250;10.406;2022-12-07T01:43:36;12.87;;;6.53;;
2858;SDS011;1437;53.250;10.406;2022-12-07T01:46:05;13.23;;;7.70;;
2858;SDS011;1437;53.250;10.406;2022-12-07T01:48:34;11.00;;;6.93;;
2858;SDS011;1437;53.250;10.406;2022-12-07T01:51:04;13.50;;;7.40;;
2858;SDS011;1437;53.250;10.406;2022-12-07T01:53:33;8.57;;;5.50;;
2858;SDS011;1437;53.250;10.406;2022-12-07T01:56:02;11.03;;;5.47;;
2858;SDS011;1437;53.250;10.406;2022-12-07T01:58:33;11.33;;;5.50;;
2858;SDS011;1437;53.250;10.406;2022-12-07T02:01:01;11.93;;;6.80;;
2858;SDS011;1437;53.250;10.406;2022-12-07T02:03:31;12.07;;;6.60;;
2858;SDS011;1437;53.250;10.406;2022-12-07T02:06:00;12.10;;;7.50;;
2858;SDS011;1437;53.250;10.406;2022-12-07T02:08:28;12.97;;;6.80;;
2858;SDS011;1437;53.250;10.406;2022-12-07T02:10:55;11.03;;;6.67;;
2858;SDS011;1437;53.250;10.406;2022-12-07T02:13:23;11.50;;;6.37;;
2858;SDS011;1437;53.250;10.406;2022-12-07T02:15:56;10.60;;;4.60;;
2858;SDS011;1437;53.250;10.406;2022-12-07T02:18:31;11.70;;;5.80;;
2858;SDS011;1437;53.250;10.406;2022-12-07T02:21:07;14.30;;;7.57;;
2858;SDS011;1437;53.250;10.406;2022-12-07T02:23:50;12.33;;;6.57;;
2858;SDS011;1437;53.250;10.406;2022-12-07T02:26:35;10.00;;;6.60;;
2858;SDS011;1437;53.250;10.406;2022-12-07T02:29:11;11.13;;;5.70;;
2858;SDS011;1437;53.250;10.406;2022-12-07T02:31:43;9.67;;;6.10;;
2858;SDS011;1437;53.250;10.406;2022-12-07T02:36:56;9.67;;;6.17;;
2858;SDS011;1437;53.250;10.406;2022-12-07T02:39:28;17.13;;;6.00;;
2858;SDS011;1437;53.250;10.406;2022-12-07T02:41:57;11.77;;;6.40;;
2858;SDS011;1437;53.250;10.406;2022-12-07T02:44:27;12.77;;;6.50;;
2858;SDS011;1437;53.250;10.406;2022-12-07T02:46:57;13.03;;;6.17;;
2858;SDS011;1437;53.250;10.406;2022-12-07T02:49:26;13.53;;;4.73;;
2858;SDS011;1437;53.250;10.406;2022-12-07T02:51:54;8.50;;;5.43;;
2858;SDS011;1437;53.250;10.406;2022-12-07T02:54:22;9.07;;;5.90;;
2858;SDS011;1437;53.250;10.406;2022-12-07T02:56:50;7.30;;;4.90;;
2858;SDS011;1437;53.250;10.406;2022-12-07T02:59:25;8.13;;;5.30;;
2858;SDS011;1437;53.250;10.406;2022-12-07T03:01:59;12.10;;;6.10;;
2858;SDS011;1437;53.250;10.406;2022-12-07T03:04:33;8.10;;;5.10;;
2858;SDS011;1437;53.250;10.406;2022-12-07T03:07:05;7.80;;;4.87;;
2858;SDS011;1437;53.250;10.406;2022-12-07T03:09:35;8.10;;;4.50;;
2858;SDS011;1437;53.250;10.406;2022-12-07T03:12:07;12.43;;;5.80;;
2858;SDS011;1437;53.250;10.406;2022-12-07T03:14:38;6.43;;;4.23;;
2858;SDS011;1437;53.250;10.406;2022-12-07T03:17:10;10.63;;;3.80;;
2858;SDS011;1437;53.250;10.406;2022-12-07T03:19:41;5.10;;;3.97;;
2858;SDS011;1437;53.250;10.406;2022-12-07T03:22:10;17.77;;;4.70;;
2858;SDS011;1437;53.250;10.406;2022-12-07T03:24:42;8.70;;;3.60;;
2858;SDS011;1437;53.250;10.406;2022-12-07T03:27:12;5.70;;;2.73;;
2858;SDS011;1437;53.250;10.406;2022-12-07T03:29:42;6.70;;;3.00;;
2858;SDS011;1437;53.250;10.406;2022-12-07T03:32:13;5.50;;;3.53;;
2858;SDS011;1437;53.250;10.406;2022-12-07T03:34:43;6.20;;;3.90;;
2858;SDS011;1437;53.250;10.406;2022-12-07T03:37:17;3.07;;;2.13;;
2858;SDS011;1437;53.250;10.406;2022-12-07T03:39:49;1.70;;;1.10;;
2858;SDS011;1437;53.250;10.406;2022-12-07T03:42:21;6.30;;;3.80;;
2858;SDS011;1437;53.250;10.406;2022-12-07T03:44:49;3.93;;;2.13;;
2858;SDS011;1437;53.250;10.406;2022-12-07T03:47:22;5.67;;;2.93;;
2858;SDS011;1437;53.250;10.406;2022-12-07T03:49:54;5.60;;;3.33;;
2858;SDS011;1437;53.250;10.406;2022-12-07T03:52:24;5.97;;;4.20;;
2858;SDS011;1437;53.250;10.406;2022-12-07T03:54:54;6.77;;;4.03;;
2858;SDS011;1437;53.250;10.406;2022-12-07T03:57:24;3.97;;;2.27;;
2858;SDS011;1437;53.250;10.406;2022-12-07T03:59:53;7.40;;;3.00;;
2858;SDS011;1437;53.250;10.406;2022-12-07T04:02:23;8.53;;;4.13;;
2858;SDS011;1437;53.250;10.406;2022-12-07T04:04:51;6.23;;;2.47;;
2858;SDS011;1437;53.250;10.406;2022-12-07T04:07:23;2.80;;;1.83;;
2858;SDS011;1437;53.250;10.406;2022-12-07T04:09:51;4.50;;;2.47;;
2858;SDS011;1437;53.250;10.406;2022-12-07T04:12:20;6.10;;;2.93;;
2858;SDS011;1437;53.250;10.406;2022-12-07T04:14:47;4.43;;;1.93;;
2858;SDS011;1437;53.250;10.406;2022-12-07T04:17:18;4.53;;;2.80;;
2858;SDS011;1437;53.250;10.406;2022-12-07T04:19:47;11.37;;;2.60;;
2858;SDS011;1437;53.250;10.406;2022-12-07T04:22:15;4.80;;;1.83;;
2858;SDS011;1437;53.250;10.406;2022-12-07T04:24:42;4.60;;;2.50;;
2858;SDS011;1437;53.250;10.406;2022-12-07T04:27:10;4.73;;;2.77;;
2858;SDS011;1437;53.250;10.406;2022-12-07T04:29:40;3.20;;;1.73;;
2858;SDS011;1437;53.250;10.406;2022-12-07T04:32:07;8.23;;;3.17;;
2858;SDS011;1437;53.250;10.406;2022-12-07T04:34:35;6.33;;;2.93;;
2858;SDS011;1437;53.250;10.406;2022-12-07T04:37:06;6.10;;;3.40;;
2858;SDS011;1437;53.250;10.406;2022-12-07T04:39:37;6.00;;;2.90;;
2858;SDS011;1437;53.250;10.406;2022-12-07T04:42:04;9.37;;;2.77;;
2858;SDS011;1437;53.250;10.406;2022-12-07T04:44:32;3.40;;;1.87;;
2858;SDS011;1437;53.250;10.406;2022-12-07T04:47:00;5.87;;;3.37;;
2858;SDS011;1437;53.250;10.406;2022-12-07T04:49:28;2.40;;;1.30;;
2858;SDS011;1437;53.250;10.406;2022-12-07T04:51:55;8.37;;;2.80;;
2858;SDS011;1437;53.250;10.406;2022-12-07T04:54:24;5.50;;;3.17;;
2858;SDS011;1437;53.250;10.406;2022-12-07T04:56:56;3.60;;;2.43;;
2858;SDS011;1437;53.250;10.406;2022-12-07T04:59:26;4.47;;;2.80;;
2858;SDS011;1437;53.250;10.406;2022-12-07T05:01:54;5.40;;;1.97;;
2858;SDS011;1437;53.250;10.406;2022-12-07T05:04:22;5.17;;;2.37;;
2858;SDS011;1437;53.250;10.406;2022-12-07T05:06:53;4.10;;;1.70;;
2858;SDS011;1437;53.250;10.406;2022-12-07T05:09:21;6.10;;;2.43;;
2858;SDS011;1437;53.250;10.406;2022-12-07T05:11:51;3.17;;;2.00;;
2858;SDS011;1437;53.250;10.406;2022-12-07T05:14:19;4.50;;;1.97;;
2858;SDS011;1437;53.250;10.406;2022-12-07T05:16:48;5.70;;;3.37;;
2858;SDS011;1437;53.250;10.406;2022-12-07T05:19:16;4.60;;;2.03;;
2858;SDS011;1437;53.250;10.406;2022-12-07T05:21:43;6.80;;;1.97;;
2858;SDS011;1437;53.250;10.406;2022-12-07T05:24:12;4.23;;;2.33;;
2858;SDS011;1437;53.250;10.406;2022-12-07T05:26:41;3.13;;;1.63;;
2858;SDS011;1437;53.250;10.406;2022-12-07T05:29:14;3.30;;;1.90;;
2858;SDS011;1437;53.250;10.406;2022-12-07T05:31:42;5.60;;;2.40;;
2858;SDS011;1437;53.250;10.406;2022-12-07T05:34:10;2.90;;;1.53;;
2858;SDS011;1437;53.250;10.406;2022-12-07T05:36:38;5.43;;;2.70;;
2858;SDS011;1437;53.250;10.406;2022-12-07T05:39:05;5.23;;;1.77;;
2858;SDS011;1437;53.250;10.406;2022-12-07T05:41:36;2.27;;;1.50;;
2858;SDS011;1437;53.250;10.406;2022-12-07T05:44:23;7.73;;;2.33;;
2858;SDS011;1437;53.250;10.406;2022-12-07T05:46:51;7.00;;;1.90;;
2858;SDS011;1437;53.250;10.406;2022-12-07T05:49:22;4.87;;;2.37;;
2858;SDS011;1437;53.250;10.406;2022-12-07T05:51:49;8.00;;;2.27;;
2858;SDS011;1437;53.250;10.406;2022-12-07T05:54:17;3.77;;;2.07;;
2858;SDS011;1437;53.250;10.406;2022-12-07T05:56:45;10.20;;;2.20;;
2858;SDS011;1437;53.250;10.406;2022-12-07T05:59:15;3.60;;;2.47;;
2858;SDS011;1437;53.250;10.406;2022-12-07T06:02:02;6.80;;;2.57;;
2858;SDS011;1437;53.250;10.406;2022-12-07T06:04:31;3.40;;;1.77;;
2858;SDS011;1437;53.250;10.406;2022-12-07T06:07:08;6.83;;;3.37;;
2858;SDS011;1437;53.250;10.406;2022-12-07T06:09:53;5.40;;;2.33;;
2858;SDS011;1437;53.250;10.406;2022-12-07T06:12:20;5.17;;;2.60;;
2858;SDS011;1437;53.250;10.406;2022-12-07T06:15:18;8.97;;;4.63;;
2858;SDS011;1437;53.250;10.406;2022-12-07T06:17:49;4.03;;;2.10;;
2858;SDS011;1437;53.250;10.406;2022-12-07T06:20:17;6.40;;;2.67;;
2858;SDS011;1437;53.250;10.406;2022-12-07T06:22:45;4.37;;;2.50;;
2858;SDS011;1437;53.250;10.406;2022-12-07T06:25:13;5.50;;;2.40;;
2858;SDS011;1437;53.250;10.406;2022-12-07T06:27:41;3.50;;;1.90;;
2858;SDS011;1437;53.250;10.406;2022-12-07T06:30:11;6.70;;;2.57;;
2858;SDS011;1437;53.250;10.406;2022-12-07T06:32:39;6.73;;;2.53;;
2858;SDS011;1437;53.250;10.406;2022-12-07T06:35:09;4.60;;;2.23;;
2858;SDS011;1437;53.250;10.406;2022-12-07T06:37:39;2.27;;;1.60;;
2858;SDS011;1437;53.250;10.406;2022-12-07T06:40:09;5.73;;;3.20;;
2858;SDS011;1437;53.250;10.406;2022-12-07T06:42:37;4.27;;;2.50;;
2858;SDS011;1437;53.250;10.406;2022-12-07T06:45:10;6.47;;;3.97;;
2858;SDS011;1437;53.250;10.406;2022-12-07T06:47:37;4.97;;;2.50;;
2858;SDS011;1437;53.250;10.406;2022-12-07T06:50:12;3.47;;;1.80;;
2858;SDS011;1437;53.250;10.406;2022-12-07T06:52:40;4.37;;;1.87;;
2858;SDS011;1437;53.250;10.406;2022-12-07T06:55:08;4.80;;;2.97;;
2858;SDS011;1437;53.250;10.406;2022-12-07T06:57:36;6.57;;;2.37;;
2858;SDS011;1437;53.250;10.406;2022-12-07T07:00:11;3.20;;;2.20;;
2858;SDS011;1437;53.250;10.406;2022-12-07T07:02:46;5.77;;;3.40;;
2858;SDS011;1437;53.250;10.406;2022-12-07T07:05:21;3.50;;;2.07;;
2858;SDS011;1437;53.250;10.406;2022-12-07T07:07:49;5.10;;;2.60;;
2858;SDS011;1437;53.250;10.406;2022-12-07T07:10:33;6.07;;;2.30;;
2858;SDS011;1437;53.250;10.406;2022-12-07T07:13:11;4.27;;;2.37;;
2858;SDS011;1437;53.250;10.406;2022-12-07T07:15:59;6.50;;;2.10;;
2858;SDS011;1437;53.250;10.406;2022-12-07T07:18:35;3.70;;;2.40;;
2858;SDS011;1437;53.250;10.406;2022-12-07T07:21:18;7.50;;;2.10;;
2858;SDS011;1437;53.250;10.406;2022-12-07T07:23:56;3.77;;;1.97;;
2858;SDS011;1437;53.250;10.406;2022-12-07T07:26:27;4.13;;;2.23;;
2858;SDS011;1437;53.250;10.406;2022-12-07T07:29:09;9.63;;;2.23;;
2858;SDS011;1437;53.250;10.406;2022-12-07T07:31:44;4.00;;;1.50;;
2858;SDS011;1437;53.250;10.406;2022-12-07T07:34:26;2.40;;;1.43;;
2858;SDS011;1437;53.250;10.406;2022-12-07T07:37:00;4.17;;;1.77;;
2858;SDS011;1437;53.250;10.406;2022-12-07T07:39:35;3.20;;;1.57;;
2858;SDS011;1437;53.250;10.406;2022-12-07T07:42:18;3.03;;;1.43;;
2858;SDS011;1437;53.250;10.406;2022-12-07T07:44:46;3.40;;;1.30;;
2858;SDS011;1437;53.250;10.406;2022-12-07T07:47:22;3.83;;;1.97;;
2858;SDS011;1437;53.250;10.406;2022-12-07T07:50:10;5.20;;;3.07;;
2858;SDS011;1437;53.250;10.406;2022-12-07T07:52:50;9.70;;;2.00;;
2858;SDS011;1437;53.250;10.406;2022-12-07T07:55:36;6.27;;;2.43;;
2858;SDS011;1437;53.250;10.406;2022-12-07T07:58:04;3.40;;;2.30;;
2858;SDS011;1437;53.250;10.406;2022-12-07T08:00:34;3.70;;;1.87;;
2858;SDS011;1437;53.250;10.406;2022-12-07T08:03:02;4.80;;;1.83;;
2858;SDS011;1437;53.250;10.406;2022-12-07T08:05:30;4.73;;;2.00;;
2858;SDS011;1437;53.250;10.406;2022-12-07T08:08:00;3.53;;;1.90;;
2858;SDS011;1437;53.250;10.406;2022-12-07T08:10:27;7.17;;;5.00;;
2858;SDS011;1437;53.250;10.406;2022-12-07T08:13:01;3.20;;;1.90;;
2858;SDS011;1437;53.250;10.406;2022-12-07T08:15:39;3.77;;;1.63;;
2858;SDS011;1437;53.250;10.406;2022-12-07T08:18:10;3.83;;;1.97;;
2858;SDS011;1437;53.250;10.406;2022-12-07T08:20:42;3.07;;;1.80;;
2858;SDS011;1437;53.250;10.406;2022-12-07T08:23:26;3.03;;;2.10;;
2858;SDS011;1437;53.250;10.406;2022-12-07T08:25:59;11.13;;;3.40;;
2858;SDS011;1437;53.250;10.406;2022-12-07T08:28:28;3.70;;;2.60;;
2858;SDS011;1437;53.250;10.406;2022-12-07T08:31:02;4.20;;;2.43;;
2858;SDS011;1437;53.250;10.406;2022-12-07T08:33:33;6.50;;;3.60;;
2858;SDS011;1437;53.250;10.406;2022-12-07T08:36:05;6.43;;;2.13;;
2858;SDS011;1437;53.250;10.406;2022-12-07T08:38:39;2.33;;;1.43;;
2858;SDS011;1437;53.250;10.406;2022-12-07T08:41:08;3.20;;;1.60;;
2858;SDS011;1437;53.250;10.406;2022-12-07T08:43:37;3.23;;;2.00;;
2858;SDS011;1437;53.250;10.406;2022-12-07T08:46:09;2.10;;;1.30;;
2858;SDS011;1437;53.250;10.406;2022-12-07T08:48:43;3.50;;;1.57;;
2858;SDS011;1437;53.250;10.406;2022-12-07T08:51:14;6.50;;;2.03;;
2858;SDS011;1437;53.250;10.406;2022-12-07T09:00:14;2.70;;;1.53;;
2858;SDS011;1437;53.250;10.406;2022-12-07T09:03:05;3.53;;;2.27;;
2858;SDS011;1437;53.250;10.406;2022-12-07T09:05:41;6.53;;;2.10;;
2858;SDS011;1437;53.250;10.406;2022-12-07T09:08:19;2.57;;;1.80;;
2858;SDS011;1437;53.250;10.406;2022-12-07T09:10:47;3.27;;;1.83;;
2858;SDS011;1437;53.250;10.406;2022-12-07T09:13:15;5.57;;;2.50;;
2858;SDS011;1437;53.250;10.406;2022-12-07T09:15:44;5.47;;;3.23;;
2858;SDS011;1437;53.250;10.406;2022-12-07T09:18:15;2.23;;;1.60;;
2858;SDS011;1437;53.250;10.406;2022-12-07T09:20:45;4.87;;;1.80;;
2858;SDS011;1437;53.250;10.406;2022-12-07T09:23:14;2.30;;;1.20;;
2858;SDS011;1437;53.250;10.406;2022-12-07T09:25:41;4.93;;;1.70;;
2858;SDS011;1437;53.250;10.406;2022-12-07T09:28:16;9.93;;;2.27;;
2858;SDS011;1437;53.250;10.406;2022-12-07T09:30:52;7.70;;;2.10;;
2858;SDS011;1437;53.250;10.406;2022-12-07T09:33:20;6.63;;;2.23;;
2858;SDS011;1437;53.250;10.406;2022-12-07T09:35:50;4.07;;;1.77;;
2858;SDS011;1437;53.250;10.406;2022-12-07T09:38:18;6.13;;;1.93;;
2858;SDS011;1437;53.250;10.406;2022-12-07T09:40:50;4.10;;;2.40;;
2858;SDS011;1437;53.250;10.406;2022-12-07T09:43:27;2.00;;;1.27;;
2858;SDS011;1437;53.250;10.406;2022-12-07T09:46:01;4.77;;;2.33;;
2858;SDS011;1437;53.250;10.406;2022-12-07T09:48:30;5.40;;;1.57;;
2858;SDS011;1437;53.250;10.406;2022-12-07T09:51:02;4.70;;;2.80;;
2858;SDS011;1437;53.250;10.406;2022-12-07T09:53:44;4.03;;;2.37;;
2858;SDS011;1437;53.250;10.406;2022-12-07T09:56:17;9.37;;;3.10;;
2858;SDS011;1437;53.250;10.406;2022-12-07T09:58:53;13.23;;;5.93;;
2858;SDS011;1437;53.250;10.406;2022-12-07T10:01:37;3.67;;;2.30;;
2858;SDS011;1437;53.250;10.406;2022-12-07T10:04:32;3.33;;;2.13;;
2858;SDS011;1437;53.250;10.406;2022-12-07T10:07:15;7.50;;;2.93;;
2858;SDS011;1437;53.250;10.406;2022-12-07T10:09:49;3.17;;;1.93;;
2858;SDS011;1437;53.250;10.406;2022-12-07T10:12:19;2.43;;;1.57;;
2858;SDS011;1437;53.250;10.406;2022-12-07T10:14:54;3.40;;;1.77;;
2858;SDS011;1437;53.250;10.406;2022-12-07T10:20:21;7.97;;;2.07;;
2858;SDS011;1437;53.250;10.406;2022-12-07T10:22:54;6.20;;;2.20;;
2858;SDS011;1437;53.250;10.406;2022-12-07T10:25:26;4.70;;;2.03;;
2858;SDS011;1437;53.250;10.406;2022-12-07T10:28:08;2.90;;;1.80;;
2858;SDS011;1437;53.250;10.406;2022-12-07T10:30:55;2.87;;;2.10;;
2858;SDS011;1437;53.250;10.406;2022-12-07T10:33:38;3.63;;;2.20;;
2858;SDS011;1437;53.250;10.406;2022-12-07T10:36:24;7.83;;;2.93;;
2858;SDS011;1437;53.250;10.406;2022-12-07T10:38:59;8.00;;;1.60;;
2858;SDS011;1437;53.250;10.406;2022-12-07T10:41:28;2.07;;;1.20;;
2858;SDS011;1437;53.250;10.406;2022-12-07T10:43:56;2.10;;;0.90;;
2858;SDS011;1437;53.250;10.406;2022-12-07T10:55:19;4.80;;;1.30;;
2858;SDS011;1437;53.250;10.406;2022-12-07T10:58:16;5.53;;;1.20;;
2858;SDS011;1437;53.250;10.406;2022-12-07T11:00:56;9.00;;;1.50;;
2858;SDS011;1437;53.250;10.406;2022-12-07T11:06:57;2.70;;;1.70;;
2858;SDS011;1437;53.250;10.406;2022-12-07T11:09:47;3.80;;;1.57;;
2858;SDS011;1437;53.250;10.406;2022-12-07T11:15:32;10.17;;;2.43;;
2858;SDS011;1437;53.250;10.406;2022-12-07T11:18:17;1.90;;;0.93;;
2858;SDS011;1437;53.250;10.406;2022-12-07T11:20:54;3.20;;;1.33;;
2858;SDS011;1437;53.250;10.406;2022-12-07T11:23:29;7.10;;;1.50;;
2858;SDS011;1437;53.250;10.406;2022-12-07T11:26:01;4.93;;;1.97;;
2858;SDS011;1437;53.250;10.406;2022-12-07T11:28:49;10.50;;;3.60;;
2858;SDS011;1437;53.250;10.406;2022-12-07T11:31:41;4.10;;;1.83;;
2858;SDS011;1437;53.250;10.406;2022-12-07T11:34:50;3.27;;;1.50;;
2858;SDS011;1437;53.250;10.406;2022-12-07T11:37:43;2.40;;;1.50;;
2858;SDS011;1437;53.250;10.406;2022-12-07T11:40:15;5.40;;;2.70;;
2858;SDS011;1437;53.250;10.406;2022-12-07T11:42:46;4.07;;;1.63;;
2858;SDS011;1437;53.250;10.406;2022-12-07T11:45:37;4.17;;;1.53;;
2858;SDS011;1437;53.250;10.406;2022-12-07T11:48:25;4.00;;;1.40;;
2858;SDS011;1437;53.250;10.406;2022-12-07T11:54:03;4.90;;;1.97;;
2858;SDS011;1437;53.250;10.406;2022-12-07T11:56:40;3.33;;;1.50;;
2858;SDS011;1437;53.250;10.406;2022-12-07T11:59:36;5.10;;;2.40;;
2858;SDS011;1437;53.250;10.406;2022-12-07T12:02:19;2.50;;;1.57;;
2858;SDS011;1437;53.250;10.406;2022-12-07T12:05:12;4.07;;;1.00;;
2858;SDS011;1437;53.250;10.406;2022-12-07T12:07:59;3.67;;;1.70;;
2858;SDS011;1437;53.250;10.406;2022-12-07T12:10:40;2.40;;;1.30;;
2858;SDS011;1437;53.250;10.406;2022-12-07T12:13:33;4.70;;;1.97;;
2858;SDS011;1437;53.250;10.406;2022-12-07T12:16:31;8.00;;;1.93;;
2858;SDS011;1437;53.250;10.406;2022-12-07T12:19:23;3.23;;;1.47;;
2858;SDS011;1437;53.250;10.406;2022-12-07T12:25:03;2.90;;;1.17;;
2858;SDS011;1437;53.250;10.406;2022-12-07T12:30:44;1.83;;;1.03;;
2858;SDS011;1437;53.250;10.406;2022-12-07T12:36:20;8.73;;;1.73;;
2858;SDS011;1437;53.250;10.406;2022-12-07T12:39:13;3.87;;;1.57;;
2858;SDS011;1437;53.250;10.406;2022-12-07T12:41:56;3.40;;;1.27;;
2858;SDS011;1437;53.250;10.406;2022-12-07T12:50:31;9.33;;;2.17;;
2858;SDS011;1437;53.250;10.406;2022-12-07T12:53:04;2.80;;;0.90;;
2858;SDS011;1437;53.250;10.406;2022-12-07T12:56:28;4.83;;;1.83;;
2858;SDS011;1437;53.250;10.406;2022-12-07T13:08:11;8.17;;;2.40;;
2858;SDS011;1437;53.250;10.406;2022-12-07T13:11:15;4.23;;;2.10;;
2858;SDS011;1437;53.250;10.406;2022-12-07T13:16:48;6.23;;;2.00;;
2858;SDS011;1437;53.250;10.406;2022-12-07T13:20:03;7.60;;;2.60;;
2858;SDS011;1437;53.250;10.406;2022-12-07T13:22:59;4.10;;;2.23;;
2858;SDS011;1437;53.250;10.406;2022-12-07T13:35:34;8.20;;;2.63;;
2858;SDS011;1437;53.250;10.406;2022-12-07T13:38:24;6.93;;;1.70;;
2858;SDS011;1437;53.250;10.406;2022-12-07T13:41:15;4.10;;;1.90;;
2858;SDS011;1437;53.250;10.406;2022-12-07T13:43:53;4.67;;;2.00;;
2858;SDS011;1437;53.250;10.406;2022-12-07T13:46:26;4.43;;;1.70;;
2858;SDS011;1437;53.250;10.406;2022-12-07T13:52:18;2.80;;;1.33;;
2858;SDS011;1437;53.250;10.406;2022-12-07T13:54:54;5.30;;;1.93;;
2858;SDS011;1437;53.250;10.406;2022-12-07T13:57:27;3.33;;;1.20;;
2858;SDS011;1437;53.250;10.406;2022-12-07T14:00:15;3.60;;;2.20;;
2858;SDS011;1437;53.250;10.406;2022-12-07T14:06:10;5.30;;;2.20;;
2858;SDS011;1437;53.250;10.406;2022-12-07T14:09:19;2.57;;;1.43;;
2858;SDS011;1437;53.250;10.406;2022-12-07T14:14:58;5.07;;;1.63;;
2858;SDS011;1437;53.250;10.406;2022-12-07T14:17:38;2.73;;;1.67;;
2858;SDS011;1437;53.250;10.406;2022-12-07T14:20:38;6.60;;;2.67;;
2858;SDS011;1437;53.250;10.406;2022-12-07T14:23:27;1.70;;;0.97;;
2858;SDS011;1437;53.250;10.406;2022-12-07T14:26:15;6.20;;;1.27;;
2858;SDS011;1437;53.250;10.406;2022-12-07T14:31:39;7.33;;;1.70;;
2858;SDS011;1437;53.250;10.406;2022-12-07T14:34:32;13.77;;;1.43;;
2858;SDS011;1437;53.250;10.406;2022-12-07T14:37:06;2.57;;;0.90;;
2858;SDS011;1437;53.250;10.406;2022-12-07T14:39:52;7.50;;;1.57;;
2858;SDS011;1437;53.250;10.406;2022-12-07T14:42:42;13.93;;;2.13;;
2858;SDS011;1437;53.250;10.406;2022-12-07T14:45:21;3.87;;;1.93;;
2858;SDS011;1437;53.250;10.406;2022-12-07T14:50:54;6.90;;;3.57;;
2858;SDS011;1437;53.250;10.406;2022-12-07T14:53:35;4.93;;;1.90;;
2858;SDS011;1437;53.250;10.406;2022-12-07T14:56:09;2.50;;;1.57;;
2858;SDS011;1437;53.250;10.406;2022-12-07T14:58:39;3.00;;;1.57;;
2858;SDS011;1437;53.250;10.406;2022-12-07T15:02:35;3.67;;;1.50;;
2858;SDS011;1437;53.250;10.406;2022-12-07T15:07:50;3.50;;;0.97;;
2858;SDS011;1437;53.250;10.406;2022-12-07T15:10:28;5.10;;;2.23;;
2858;SDS011;1437;53.250;10.406;2022-12-07T15:13:16;3.90;;;1.63;;
2858;SDS011;1437;53.250;10.406;2022-12-07T15:16:09;5.07;;;2.03;;
2858;SDS011;1437;53.250;10.406;2022-12-07T15:18:44;5.87;;;2.37;;
2858;SDS011;1437;53.250;10.406;2022-12-07T15:21:40;8.03;;;1.93;;
2858;SDS011;1437;53.250;10.406;2022-12-07T15:24:25;7.00;;;2.00;;
2858;SDS011;1437;53.250;10.406;2022-12-07T15:27:02;11.33;;;5.50;;
2858;SDS011;1437;53.250;10.406;2022-12-07T15:29:32;2.10;;;1.30;;
2858;SDS011;1437;53.250;10.406;2022-12-07T15:32:20;3.13;;;2.10;;
2858;SDS011;1437;53.250;10.406;2022-12-07T15:35:04;3.80;;;1.93;;
2858;SDS011;1437;53.250;10.406;2022-12-07T15:37:33;6.33;;;2.07;;
2858;SDS011;1437;53.250;10.406;2022-12-07T15:40:13;6.67;;;2.30;;
2858;SDS011;1437;53.250;10.406;2022-12-07T15:42:44;3.20;;;1.90;;
2858;SDS011;1437;53.250;10.406;2022-12-07T15:45:22;7.03;;;2.70;;
2858;SDS011;1437;53.250;10.406;2022-12-07T15:47:57;7.13;;;2.20;;
2858;SDS011;1437;53.250;10.406;2022-12-07T15:50:34;5.60;;;1.73;;
2858;SDS011;1437;53.250;10.406;2022-12-07T15:53:15;5.73;;;3.13;;
2858;SDS011;1437;53.250;10.406;2022-12-07T15:55:56;5.83;;;2.80;;
2858;SDS011;1437;53.250;10.406;2022-12-07T15:58:39;9.90;;;2.17;;
2858;SDS011;1437;53.250;10.406;2022-12-07T16:01:12;2.53;;;1.80;;
2858;SDS011;1437;53.250;10.406;2022-12-07T16:03:48;7.30;;;2.50;;
2858;SDS011;1437;53.250;10.406;2022-12-07T16:06:20;8.47;;;3.67;;
2858;SDS011;1437;53.250;10.406;2022-12-07T16:09:09;4.13;;;2.60;;
2858;SDS011;1437;53.250;10.406;2022-12-07T16:11:59;5.77;;;3.07;;
2858;SDS011;1437;53.250;10.406;2022-12-07T16:14:47;10.00;;;4.13;;
2858;SDS011;1437;53.250;10.406;2022-12-07T16:17:24;9.63;;;2.50;;
2858;SDS011;1437;53.250;10.406;2022-12-07T16:20:03;5.00;;;3.50;;
2858;SDS011;1437;53.250;10.406;2022-12-07T16:22:52;3.70;;;2.73;;
2858;SDS011;1437;53.250;10.406;2022-12-07T16:25:53;11.23;;;4.30;;
2858;SDS011;1437;53.250;10.406;2022-12-07T16:28:25;8.20;;;5.17;;
2858;SDS011;1437;53.250;10.406;2022-12-07T16:31:16;4.80;;;3.27;;
2858;SDS011;1437;53.250;10.406;2022-12-07T16:34:04;11.00;;;5.53;;
2858;SDS011;1437;53.250;10.406;2022-12-07T16:36:37;13.17;;;6.40;;
2858;SDS011;1437;53.250;10.406;2022-12-07T16:39:10;5.63;;;3.37;;
2858;SDS011;1437;53.250;10.406;2022-12-07T16:41:44;9.83;;;4.83;;
2858;SDS011;1437;53.250;10.406;2022-12-07T16:53:40;8.17;;;3.57;;
2858;SDS011;1437;53.250;10.406;2022-12-07T16:56:12;6.83;;;3.40;;
2858;SDS011;1437;53.250;10.406;2022-12-07T16:58:52;6.97;;;3.50;;
2858;SDS011;1437;53.250;10.406;2022-12-07T17:01:35;10.80;;;4.40;;
2858;SDS011;1437;53.250;10.406;2022-12-07T17:04:28;4.40;;;3.50;;
2858;SDS011;1437;53.250;10.406;2022-12-07T17:07:12;4.23;;;2.90;;
2858;SDS011;1437;53.250;10.406;2022-12-07T17:09:57;8.53;;;3.83;;
2858;SDS011;1437;53.250;10.406;2022-12-07T17:12:31;6.13;;;4.20;;
2858;SDS011;1437;53.250;10.406;2022-12-07T17:15:10;8.63;;;4.47;;
2858;SDS011;1437;53.250;10.406;2022-12-07T17:17:53;7.63;;;4.20;;
2858;SDS011;1437;53.250;10.406;2022-12-07T17:20:31;8.70;;;5.30;;
2858;SDS011;1437;53.250;10.406;2022-12-07T17:23:20;9.77;;;5.73;;